sensor_id;sensor_type;location;lat;lon;timestamp;P1;durP1;ratioP1;P2;durP2;ratioP2
17696;SDS011;8967;47.984;7.842;2022-07-21T00:00:13;13.95;;;12.10;;
17696;SDS011;8967;47.984;7.842;2022-07-21T00:02:41;13.10;;;9.80;;
17696;SDS011;8967;47.984;7.842;2022-07-21T00:05:08;15.00;;;10.38;;
17696;SDS011;8967;47.984;7.842;2022-07-21T00:07:35;14.27;;;10.23;;
17696;SDS011;8967;47.984;7.842;2022-07-21T00:10:03;14.98;;;10.85;;
17696;SDS011;8967;47.984;7.842;2022-07-21T00:12:30;19.27;;;11.95;;
17696;SDS011;8967;47.984;7.842;2022-07-21T00:14:57;14.93;;;12.05;;
17696;SDS011;8967;47.984;7.842;2022-07-21T00:17:25;15.68;;;11.02;;
17696;SDS011;8967;47.984;7.842;2022-07-21T00:19:52;16.95;;;12.25;;
17696;SDS011;8967;47.984;7.842;2022-07-21T00:22:21;16.00;;;12.15;;
17696;SDS011;8967;47.984;7.842;2022-07-21T00:24:48;15.40;;;12.68;;
17696;SDS011;8967;47.984;7.842;2022-07-21T00:27:18;14.63;;;11.70;;
17696;SDS011;8967;47.984;7.842;2022-07-21T00:29:44;15.30;;;12.13;;
17696;SDS011;8967;47.984;7.842;2022-07-21T00:32:11;17.48;;;12.65;;
17696;SDS011;8967;47.984;7.842;2022-07-21T00:34:40;15.45;;;12.60;;
17696;SDS011;8967;47.984;7.842;2022-07-21T00:37:07;19.17;;;12.82;;
17696;SDS011;8967;47.984;7.842;2022-07-21T00:39:33;12.50;;;10.90;;
17696;SDS011;8967;47.984;7.842;2022-07-21T00:42:00;14.40;;;11.43;;
17696;SDS011;8967;47.984;7.842;2022-07-21T00:44:28;15.88;;;11.10;;
17696;SDS011;8967;47.984;7.842;2022-07-21T00:46:55;17.70;;;11.63;;
17696;SDS011;8967;47.984;7.842;2022-07-21T00:49:23;14.25;;;10.98;;
17696;SDS011;8967;47.984;7.842;2022-07-21T00:51:51;13.77;;;10.68;;
17696;SDS011;8967;47.984;7.842;2022-07-21T00:54:18;13.45;;;11.75;;
17696;SDS011;8967;47.984;7.842;2022-07-21T00:56:45;12.43;;;11.13;;
17696;SDS011;8967;47.984;7.842;2022-07-21T00:59:13;16.58;;;11.18;;
17696;SDS011;8967;47.984;7.842;2022-07-21T01:01:42;13.70;;;11.00;;
17696;SDS011;8967;47.984;7.842;2022-07-21T01:04:09;14.23;;;11.25;;
17696;SDS011;8967;47.984;7.842;2022-07-21T01:06:39;13.43;;;11.05;;
17696;SDS011;8967;47.984;7.842;2022-07-21T01:09:07;14.60;;;11.88;;
17696;SDS011;8967;47.984;7.842;2022-07-21T01:11:38;15.27;;;11.25;;
17696;SDS011;8967;47.984;7.842;2022-07-21T01:14:06;14.73;;;11.43;;
17696;SDS011;8967;47.984;7.842;2022-07-21T01:16:33;12.25;;;11.00;;
17696;SDS011;8967;47.984;7.842;2022-07-21T01:19:00;12.90;;;10.85;;
17696;SDS011;8967;47.984;7.842;2022-07-21T01:21:29;12.88;;;11.43;;
17696;SDS011;8967;47.984;7.842;2022-07-21T01:23:57;11.93;;;10.30;;
17696;SDS011;8967;47.984;7.842;2022-07-21T01:26:25;14.55;;;12.05;;
17696;SDS011;8967;47.984;7.842;2022-07-21T01:28:52;17.08;;;11.52;;
17696;SDS011;8967;47.984;7.842;2022-07-21T01:31:19;14.25;;;11.57;;
17696;SDS011;8967;47.984;7.842;2022-07-21T01:33:47;11.93;;;10.68;;
17696;SDS011;8967;47.984;7.842;2022-07-21T01:36:14;12.50;;;10.48;;
17696;SDS011;8967;47.984;7.842;2022-07-21T01:38:42;13.35;;;11.07;;
17696;SDS011;8967;47.984;7.842;2022-07-21T01:41:26;13.48;;;10.77;;
17696;SDS011;8967;47.984;7.842;2022-07-21T01:43:58;13.32;;;9.98;;
17696;SDS011;8967;47.984;7.842;2022-07-21T01:46:26;14.30;;;10.63;;
17696;SDS011;8967;47.984;7.842;2022-07-21T01:48:54;11.88;;;9.85;;
17696;SDS011;8967;47.984;7.842;2022-07-21T01:51:24;11.85;;;10.70;;
17696;SDS011;8967;47.984;7.842;2022-07-21T01:53:52;10.82;;;9.68;;
17696;SDS011;8967;47.984;7.842;2022-07-21T01:56:20;13.73;;;11.02;;
17696;SDS011;8967;47.984;7.842;2022-07-21T01:58:48;14.82;;;10.95;;
17696;SDS011;8967;47.984;7.842;2022-07-21T02:01:16;12.48;;;10.65;;
17696;SDS011;8967;47.984;7.842;2022-07-21T02:03:47;14.38;;;10.98;;
17696;SDS011;8967;47.984;7.842;2022-07-21T02:06:14;11.43;;;9.95;;
17696;SDS011;8967;47.984;7.842;2022-07-21T02:08:44;14.75;;;10.93;;
17696;SDS011;8967;47.984;7.842;2022-07-21T02:11:13;13.07;;;10.65;;
17696;SDS011;8967;47.984;7.842;2022-07-21T02:13:40;11.93;;;10.63;;
17696;SDS011;8967;47.984;7.842;2022-07-21T02:16:08;12.02;;;10.30;;
17696;SDS011;8967;47.984;7.842;2022-07-21T02:18:35;13.98;;;11.10;;
17696;SDS011;8967;47.984;7.842;2022-07-21T02:21:05;13.32;;;11.30;;
17696;SDS011;8967;47.984;7.842;2022-07-21T02:23:32;12.88;;;11.35;;
17696;SDS011;8967;47.984;7.842;2022-07-21T02:26:00;12.88;;;10.88;;
17696;SDS011;8967;47.984;7.842;2022-07-21T02:28:28;17.27;;;11.45;;
17696;SDS011;8967;47.984;7.842;2022-07-21T02:30:55;13.43;;;11.70;;
17696;SDS011;8967;47.984;7.842;2022-07-21T02:33:22;12.52;;;9.98;;
17696;SDS011;8967;47.984;7.842;2022-07-21T02:35:49;13.23;;;10.98;;
17696;SDS011;8967;47.984;7.842;2022-07-21T02:38:16;16.42;;;11.77;;
17696;SDS011;8967;47.984;7.842;2022-07-21T02:40:43;14.57;;;10.40;;
17696;SDS011;8967;47.984;7.842;2022-07-21T02:43:10;13.43;;;10.32;;
17696;SDS011;8967;47.984;7.842;2022-07-21T02:45:38;13.35;;;11.55;;
17696;SDS011;8967;47.984;7.842;2022-07-21T02:48:08;13.75;;;11.27;;
17696;SDS011;8967;47.984;7.842;2022-07-21T02:50:36;13.35;;;11.10;;
17696;SDS011;8967;47.984;7.842;2022-07-21T02:53:05;13.63;;;11.18;;
17696;SDS011;8967;47.984;7.842;2022-07-21T02:55:33;13.90;;;10.93;;
17696;SDS011;8967;47.984;7.842;2022-07-21T02:58:07;15.20;;;11.60;;
17696;SDS011;8967;47.984;7.842;2022-07-21T03:00:37;12.82;;;11.52;;
17696;SDS011;8967;47.984;7.842;2022-07-21T03:03:07;14.52;;;11.05;;
17696;SDS011;8967;47.984;7.842;2022-07-21T03:05:35;15.20;;;10.63;;
17696;SDS011;8967;47.984;7.842;2022-07-21T03:08:03;13.60;;;11.20;;
17696;SDS011;8967;47.984;7.842;2022-07-21T03:10:33;15.63;;;12.23;;
17696;SDS011;8967;47.984;7.842;2022-07-21T03:13:00;14.75;;;11.73;;
17696;SDS011;8967;47.984;7.842;2022-07-21T03:15:28;15.20;;;11.73;;
17696;SDS011;8967;47.984;7.842;2022-07-21T03:17:57;14.65;;;11.98;;
17696;SDS011;8967;47.984;7.842;2022-07-21T03:20:27;18.15;;;12.27;;
17696;SDS011;8967;47.984;7.842;2022-07-21T03:22:56;15.55;;;11.77;;
17696;SDS011;8967;47.984;7.842;2022-07-21T03:25:23;14.05;;;11.43;;
17696;SDS011;8967;47.984;7.842;2022-07-21T03:27:51;16.42;;;11.48;;
17696;SDS011;8967;47.984;7.842;2022-07-21T03:30:18;17.42;;;12.20;;
17696;SDS011;8967;47.984;7.842;2022-07-21T03:32:47;13.23;;;10.85;;
17696;SDS011;8967;47.984;7.842;2022-07-21T03:35:15;14.18;;;11.32;;
17696;SDS011;8967;47.984;7.842;2022-07-21T03:37:46;12.40;;;11.05;;
17696;SDS011;8967;47.984;7.842;2022-07-21T03:40:15;14.27;;;11.75;;
17696;SDS011;8967;47.984;7.842;2022-07-21T03:42:44;13.05;;;11.68;;
17696;SDS011;8967;47.984;7.842;2022-07-21T03:45:11;12.93;;;11.60;;
17696;SDS011;8967;47.984;7.842;2022-07-21T03:47:38;12.93;;;11.25;;
17696;SDS011;8967;47.984;7.842;2022-07-21T03:50:06;14.38;;;11.75;;
17696;SDS011;8967;47.984;7.842;2022-07-21T03:52:35;16.40;;;12.02;;
17696;SDS011;8967;47.984;7.842;2022-07-21T03:55:02;15.18;;;11.80;;
17696;SDS011;8967;47.984;7.842;2022-07-21T03:57:36;15.55;;;12.13;;
17696;SDS011;8967;47.984;7.842;2022-07-21T04:00:04;17.02;;;12.63;;
17696;SDS011;8967;47.984;7.842;2022-07-21T04:02:36;16.88;;;11.63;;
17696;SDS011;8967;47.984;7.842;2022-07-21T04:05:04;15.13;;;11.93;;
17696;SDS011;8967;47.984;7.842;2022-07-21T04:07:31;15.57;;;11.65;;
17696;SDS011;8967;47.984;7.842;2022-07-21T04:09:59;13.85;;;11.73;;
17696;SDS011;8967;47.984;7.842;2022-07-21T04:12:26;15.07;;;12.27;;
17696;SDS011;8967;47.984;7.842;2022-07-21T04:14:53;17.70;;;12.88;;
17696;SDS011;8967;47.984;7.842;2022-07-21T04:17:23;14.70;;;12.00;;
17696;SDS011;8967;47.984;7.842;2022-07-21T04:19:50;16.67;;;12.85;;
17696;SDS011;8967;47.984;7.842;2022-07-21T04:22:17;12.85;;;10.88;;
17696;SDS011;8967;47.984;7.842;2022-07-21T04:24:44;15.80;;;12.45;;
17696;SDS011;8967;47.984;7.842;2022-07-21T04:27:14;15.23;;;12.43;;
17696;SDS011;8967;47.984;7.842;2022-07-21T04:29:44;13.43;;;11.57;;
17696;SDS011;8967;47.984;7.842;2022-07-21T04:32:10;16.02;;;11.20;;
17696;SDS011;8967;47.984;7.842;2022-07-21T04:34:37;15.73;;;11.10;;
17696;SDS011;8967;47.984;7.842;2022-07-21T04:37:04;13.93;;;11.13;;
17696;SDS011;8967;47.984;7.842;2022-07-21T04:39:31;17.33;;;12.27;;
17696;SDS011;8967;47.984;7.842;2022-07-21T04:41:58;17.02;;;12.05;;
17696;SDS011;8967;47.984;7.842;2022-07-21T04:44:27;14.00;;;12.00;;
17696;SDS011;8967;47.984;7.842;2022-07-21T04:46:54;12.60;;;11.30;;
17696;SDS011;8967;47.984;7.842;2022-07-21T04:49:20;12.50;;;11.13;;
17696;SDS011;8967;47.984;7.842;2022-07-21T04:51:47;16.17;;;11.48;;
17696;SDS011;8967;47.984;7.842;2022-07-21T04:54:14;15.77;;;12.15;;
17696;SDS011;8967;47.984;7.842;2022-07-21T04:56:44;13.43;;;11.27;;
17696;SDS011;8967;47.984;7.842;2022-07-21T04:59:11;14.75;;;11.88;;
17696;SDS011;8967;47.984;7.842;2022-07-21T05:01:40;13.88;;;11.13;;
17696;SDS011;8967;47.984;7.842;2022-07-21T05:04:07;14.02;;;11.60;;
17696;SDS011;8967;47.984;7.842;2022-07-21T05:06:34;13.73;;;11.32;;
17696;SDS011;8967;47.984;7.842;2022-07-21T05:09:01;14.55;;;11.98;;
17696;SDS011;8967;47.984;7.842;2022-07-21T05:11:30;13.50;;;12.07;;
17696;SDS011;8967;47.984;7.842;2022-07-21T05:13:57;14.75;;;11.88;;
17696;SDS011;8967;47.984;7.842;2022-07-21T05:16:24;13.40;;;11.32;;
17696;SDS011;8967;47.984;7.842;2022-07-21T05:18:52;15.60;;;10.82;;
17696;SDS011;8967;47.984;7.842;2022-07-21T05:21:19;14.65;;;11.02;;
17696;SDS011;8967;47.984;7.842;2022-07-21T05:23:46;17.17;;;11.68;;
17696;SDS011;8967;47.984;7.842;2022-07-21T05:26:13;14.50;;;10.80;;
17696;SDS011;8967;47.984;7.842;2022-07-21T05:28:40;15.75;;;10.75;;
17696;SDS011;8967;47.984;7.842;2022-07-21T05:31:08;14.02;;;11.02;;
17696;SDS011;8967;47.984;7.842;2022-07-21T05:33:35;17.17;;;11.70;;
17696;SDS011;8967;47.984;7.842;2022-07-21T05:36:04;13.27;;;10.48;;
17696;SDS011;8967;47.984;7.842;2022-07-21T05:38:31;16.08;;;10.82;;
17696;SDS011;8967;47.984;7.842;2022-07-21T05:40:59;13.30;;;10.75;;
17696;SDS011;8967;47.984;7.842;2022-07-21T05:43:30;13.38;;;10.88;;
17696;SDS011;8967;47.984;7.842;2022-07-21T05:45:57;12.60;;;9.95;;
17696;SDS011;8967;47.984;7.842;2022-07-21T05:48:26;15.75;;;10.23;;
17696;SDS011;8967;47.984;7.842;2022-07-21T05:50:55;11.05;;;9.48;;
17696;SDS011;8967;47.984;7.842;2022-07-21T05:53:24;15.63;;;10.68;;
17696;SDS011;8967;47.984;7.842;2022-07-21T05:55:53;13.60;;;10.38;;
17696;SDS011;8967;47.984;7.842;2022-07-21T05:58:22;12.10;;;9.55;;
17696;SDS011;8967;47.984;7.842;2022-07-21T06:00:50;12.02;;;9.57;;
17696;SDS011;8967;47.984;7.842;2022-07-21T06:03:31;11.85;;;9.38;;
17696;SDS011;8967;47.984;7.842;2022-07-21T06:05:57;16.83;;;9.75;;
17696;SDS011;8967;47.984;7.842;2022-07-21T06:08:26;13.18;;;9.88;;
17696;SDS011;8967;47.984;7.842;2022-07-21T06:10:53;12.38;;;9.68;;
17696;SDS011;8967;47.984;7.842;2022-07-21T06:13:20;13.00;;;9.30;;
17696;SDS011;8967;47.984;7.842;2022-07-21T06:15:47;10.65;;;8.88;;
17696;SDS011;8967;47.984;7.842;2022-07-21T06:18:14;10.63;;;9.50;;
17696;SDS011;8967;47.984;7.842;2022-07-21T06:20:41;14.00;;;9.00;;
17696;SDS011;8967;47.984;7.842;2022-07-21T06:23:10;16.02;;;8.90;;
17696;SDS011;8967;47.984;7.842;2022-07-21T06:25:38;12.20;;;9.40;;
17696;SDS011;8967;47.984;7.842;2022-07-21T06:28:05;11.30;;;9.43;;
17696;SDS011;8967;47.984;7.842;2022-07-21T06:30:32;11.85;;;9.50;;
17696;SDS011;8967;47.984;7.842;2022-07-21T06:32:59;9.55;;;8.55;;
17696;SDS011;8967;47.984;7.842;2022-07-21T06:35:26;11.32;;;8.95;;
17696;SDS011;8967;47.984;7.842;2022-07-21T06:37:53;11.63;;;9.15;;
17696;SDS011;8967;47.984;7.842;2022-07-21T06:40:20;13.68;;;8.93;;
17696;SDS011;8967;47.984;7.842;2022-07-21T06:42:48;10.07;;;8.55;;
17696;SDS011;8967;47.984;7.842;2022-07-21T06:45:15;10.57;;;8.13;;
17696;SDS011;8967;47.984;7.842;2022-07-21T06:47:42;12.55;;;8.23;;
17696;SDS011;8967;47.984;7.842;2022-07-21T06:50:10;10.18;;;8.27;;
17696;SDS011;8967;47.984;7.842;2022-07-21T06:52:37;8.98;;;8.07;;
17696;SDS011;8967;47.984;7.842;2022-07-21T06:55:05;11.15;;;8.73;;
17696;SDS011;8967;47.984;7.842;2022-07-21T06:57:35;10.30;;;8.80;;
17696;SDS011;8967;47.984;7.842;2022-07-21T07:00:04;11.65;;;8.68;;
17696;SDS011;8967;47.984;7.842;2022-07-21T07:02:33;11.65;;;8.38;;
17696;SDS011;8967;47.984;7.842;2022-07-21T07:05:00;15.10;;;8.45;;
17696;SDS011;8967;47.984;7.842;2022-07-21T07:07:27;10.68;;;8.27;;
17696;SDS011;8967;47.984;7.842;2022-07-21T07:09:55;10.07;;;8.48;;
17696;SDS011;8967;47.984;7.842;2022-07-21T07:12:24;12.50;;;9.25;;
17696;SDS011;8967;47.984;7.842;2022-07-21T07:14:54;14.98;;;9.10;;
17696;SDS011;8967;47.984;7.842;2022-07-21T07:17:22;11.98;;;9.02;;
17696;SDS011;8967;47.984;7.842;2022-07-21T07:19:51;11.38;;;8.90;;
17696;SDS011;8967;47.984;7.842;2022-07-21T07:22:18;8.80;;;7.72;;
17696;SDS011;8967;47.984;7.842;2022-07-21T07:24:45;12.98;;;8.65;;
17696;SDS011;8967;47.984;7.842;2022-07-21T07:27:14;12.27;;;7.18;;
17696;SDS011;8967;47.984;7.842;2022-07-21T07:29:44;9.10;;;7.43;;
17696;SDS011;8967;47.984;7.842;2022-07-21T07:32:11;9.32;;;7.38;;
17696;SDS011;8967;47.984;7.842;2022-07-21T07:34:39;8.32;;;7.22;;
17696;SDS011;8967;47.984;7.842;2022-07-21T07:37:06;11.60;;;7.78;;
17696;SDS011;8967;47.984;7.842;2022-07-21T07:39:33;9.63;;;7.43;;
17696;SDS011;8967;47.984;7.842;2022-07-21T07:42:05;10.25;;;7.78;;
17696;SDS011;8967;47.984;7.842;2022-07-21T07:44:32;17.40;;;7.75;;
17696;SDS011;8967;47.984;7.842;2022-07-21T07:46:59;8.63;;;7.72;;
17696;SDS011;8967;47.984;7.842;2022-07-21T07:49:27;10.07;;;7.63;;
17696;SDS011;8967;47.984;7.842;2022-07-21T07:51:56;13.60;;;7.07;;
17696;SDS011;8967;47.984;7.842;2022-07-21T07:54:24;9.27;;;7.80;;
17696;SDS011;8967;47.984;7.842;2022-07-21T07:56:52;9.20;;;6.80;;
17696;SDS011;8967;47.984;7.842;2022-07-21T07:59:18;9.73;;;7.50;;
17696;SDS011;8967;47.984;7.842;2022-07-21T08:01:45;9.57;;;7.07;;
17696;SDS011;8967;47.984;7.842;2022-07-21T08:04:15;10.65;;;6.85;;
17696;SDS011;8967;47.984;7.842;2022-07-21T08:06:41;8.82;;;7.38;;
17696;SDS011;8967;47.984;7.842;2022-07-21T08:09:10;10.02;;;7.72;;
17696;SDS011;8967;47.984;7.842;2022-07-21T08:11:37;9.93;;;7.32;;
17696;SDS011;8967;47.984;7.842;2022-07-21T08:14:04;8.68;;;7.45;;
17696;SDS011;8967;47.984;7.842;2022-07-21T08:16:31;10.73;;;7.68;;
17696;SDS011;8967;47.984;7.842;2022-07-21T08:18:59;8.73;;;7.25;;
17696;SDS011;8967;47.984;7.842;2022-07-21T08:21:26;11.18;;;7.05;;
17696;SDS011;8967;47.984;7.842;2022-07-21T08:23:56;7.93;;;7.13;;
17696;SDS011;8967;47.984;7.842;2022-07-21T08:26:25;10.63;;;7.30;;
17696;SDS011;8967;47.984;7.842;2022-07-21T08:28:52;8.40;;;6.20;;
17696;SDS011;8967;47.984;7.842;2022-07-21T08:31:20;11.10;;;7.55;;
17696;SDS011;8967;47.984;7.842;2022-07-21T08:33:47;7.32;;;6.15;;
17696;SDS011;8967;47.984;7.842;2022-07-21T08:36:14;8.73;;;6.40;;
17696;SDS011;8967;47.984;7.842;2022-07-21T08:38:41;8.63;;;6.35;;
17696;SDS011;8967;47.984;7.842;2022-07-21T08:41:08;8.32;;;6.43;;
17696;SDS011;8967;47.984;7.842;2022-07-21T08:43:37;7.18;;;6.15;;
17696;SDS011;8967;47.984;7.842;2022-07-21T08:46:04;7.97;;;6.22;;
17696;SDS011;8967;47.984;7.842;2022-07-21T08:48:31;9.30;;;5.90;;
17696;SDS011;8967;47.984;7.842;2022-07-21T08:50:58;6.97;;;6.07;;
17696;SDS011;8967;47.984;7.842;2022-07-21T08:53:26;7.95;;;5.68;;
17696;SDS011;8967;47.984;7.842;2022-07-21T08:55:54;7.47;;;6.10;;
17696;SDS011;8967;47.984;7.842;2022-07-21T08:58:21;8.30;;;5.20;;
17696;SDS011;8967;47.984;7.842;2022-07-21T09:00:52;7.35;;;5.13;;
17696;SDS011;8967;47.984;7.842;2022-07-21T09:03:23;5.10;;;4.32;;
17696;SDS011;8967;47.984;7.842;2022-07-21T09:06:01;6.50;;;5.15;;
17696;SDS011;8967;47.984;7.842;2022-07-21T09:08:32;5.78;;;5.07;;
17696;SDS011;8967;47.984;7.842;2022-07-21T09:11:10;6.68;;;4.85;;
17696;SDS011;8967;47.984;7.842;2022-07-21T09:13:42;5.95;;;5.35;;
17696;SDS011;8967;47.984;7.842;2022-07-21T09:16:11;6.43;;;5.32;;
17696;SDS011;8967;47.984;7.842;2022-07-21T09:18:48;7.00;;;5.22;;
17696;SDS011;8967;47.984;7.842;2022-07-21T09:21:17;6.40;;;5.03;;
17696;SDS011;8967;47.984;7.842;2022-07-21T09:23:44;5.40;;;4.90;;
17696;SDS011;8967;47.984;7.842;2022-07-21T09:26:12;11.32;;;5.85;;
17696;SDS011;8967;47.984;7.842;2022-07-21T09:28:41;6.88;;;5.07;;
17696;SDS011;8967;47.984;7.842;2022-07-21T09:31:09;8.07;;;5.40;;
17696;SDS011;8967;47.984;7.842;2022-07-21T09:33:39;7.15;;;4.95;;
17696;SDS011;8967;47.984;7.842;2022-07-21T09:36:09;6.75;;;5.20;;
17696;SDS011;8967;47.984;7.842;2022-07-21T09:38:40;5.68;;;4.88;;
17696;SDS011;8967;47.984;7.842;2022-07-21T09:41:10;7.45;;;5.15;;
17696;SDS011;8967;47.984;7.842;2022-07-21T09:43:40;6.55;;;4.68;;
17696;SDS011;8967;47.984;7.842;2022-07-21T09:46:09;9.70;;;5.53;;
17696;SDS011;8967;47.984;7.842;2022-07-21T09:48:45;5.60;;;4.88;;
17696;SDS011;8967;47.984;7.842;2022-07-21T09:51:23;7.47;;;5.18;;
17696;SDS011;8967;47.984;7.842;2022-07-21T09:53:53;5.20;;;4.70;;
17696;SDS011;8967;47.984;7.842;2022-07-21T09:56:24;7.20;;;4.78;;
17696;SDS011;8967;47.984;7.842;2022-07-21T09:58:52;5.75;;;4.53;;
17696;SDS011;8967;47.984;7.842;2022-07-21T10:01:24;6.50;;;4.35;;
17696;SDS011;8967;47.984;7.842;2022-07-21T10:03:54;4.82;;;4.20;;
17696;SDS011;8967;47.984;7.842;2022-07-21T10:06:22;7.60;;;4.78;;
17696;SDS011;8967;47.984;7.842;2022-07-21T10:08:55;5.20;;;4.55;;
17696;SDS011;8967;47.984;7.842;2022-07-21T10:11:26;5.95;;;4.50;;
17696;SDS011;8967;47.984;7.842;2022-07-21T10:13:53;7.97;;;4.30;;
17696;SDS011;8967;47.984;7.842;2022-07-21T10:16:21;5.72;;;4.43;;
17696;SDS011;8967;47.984;7.842;2022-07-21T10:18:52;7.30;;;4.35;;
17696;SDS011;8967;47.984;7.842;2022-07-21T10:21:29;5.30;;;3.58;;
17696;SDS011;8967;47.984;7.842;2022-07-21T10:24:05;6.18;;;4.03;;
17696;SDS011;8967;47.984;7.842;2022-07-21T10:26:35;8.48;;;4.10;;
17696;SDS011;8967;47.984;7.842;2022-07-21T10:29:04;5.22;;;3.85;;
17696;SDS011;8967;47.984;7.842;2022-07-21T10:31:31;4.05;;;2.97;;
17696;SDS011;8967;47.984;7.842;2022-07-21T10:34:12;5.47;;;3.42;;
17696;SDS011;8967;47.984;7.842;2022-07-21T10:36:40;6.60;;;3.20;;
17696;SDS011;8967;47.984;7.842;2022-07-21T10:41:57;4.00;;;2.85;;
17696;SDS011;8967;47.984;7.842;2022-07-21T10:44:43;4.18;;;3.00;;
17696;SDS011;8967;47.984;7.842;2022-07-21T10:47:13;3.67;;;3.38;;
17696;SDS011;8967;47.984;7.842;2022-07-21T10:49:46;3.17;;;2.88;;
17696;SDS011;8967;47.984;7.842;2022-07-21T10:55:23;7.43;;;2.88;;
17696;SDS011;8967;47.984;7.842;2022-07-21T11:00:43;4.45;;;2.92;;
17696;SDS011;8967;47.984;7.842;2022-07-21T11:03:17;3.13;;;2.42;;
17696;SDS011;8967;47.984;7.842;2022-07-21T11:06:14;2.92;;;2.50;;
17696;SDS011;8967;47.984;7.842;2022-07-21T11:08:45;5.28;;;3.00;;
17696;SDS011;8967;47.984;7.842;2022-07-21T11:11:14;5.22;;;3.20;;
17696;SDS011;8967;47.984;7.842;2022-07-21T11:14:01;3.60;;;3.13;;
17696;SDS011;8967;47.984;7.842;2022-07-21T11:19:35;4.75;;;2.60;;
17696;SDS011;8967;47.984;7.842;2022-07-21T11:22:11;3.70;;;3.17;;
17696;SDS011;8967;47.984;7.842;2022-07-21T11:24:40;7.47;;;3.22;;
17696;SDS011;8967;47.984;7.842;2022-07-21T11:27:10;4.80;;;3.03;;
17696;SDS011;8967;47.984;7.842;2022-07-21T11:29:39;3.63;;;3.25;;
17696;SDS011;8967;47.984;7.842;2022-07-21T11:32:08;3.50;;;3.00;;
17696;SDS011;8967;47.984;7.842;2022-07-21T11:34:39;6.70;;;3.35;;
17696;SDS011;8967;47.984;7.842;2022-07-21T11:37:08;4.00;;;3.40;;
17696;SDS011;8967;47.984;7.842;2022-07-21T11:39:37;5.55;;;3.20;;
17696;SDS011;8967;47.984;7.842;2022-07-21T11:42:05;4.22;;;3.05;;
17696;SDS011;8967;47.984;7.842;2022-07-21T11:44:34;4.15;;;3.03;;
17696;SDS011;8967;47.984;7.842;2022-07-21T11:47:03;8.13;;;3.25;;
17696;SDS011;8967;47.984;7.842;2022-07-21T11:49:33;5.50;;;3.50;;
17696;SDS011;8967;47.984;7.842;2022-07-21T11:52:01;4.38;;;3.03;;
17696;SDS011;8967;47.984;7.842;2022-07-21T11:54:32;3.63;;;3.20;;
17696;SDS011;8967;47.984;7.842;2022-07-21T11:57:01;7.38;;;2.92;;
17696;SDS011;8967;47.984;7.842;2022-07-21T11:59:30;3.50;;;3.00;;
17696;SDS011;8967;47.984;7.842;2022-07-21T12:02:01;4.57;;;3.05;;
17696;SDS011;8967;47.984;7.842;2022-07-21T12:04:35;3.47;;;3.13;;
17696;SDS011;8967;47.984;7.842;2022-07-21T12:07:05;4.55;;;3.15;;
17696;SDS011;8967;47.984;7.842;2022-07-21T12:09:37;3.30;;;3.00;;
17696;SDS011;8967;47.984;7.842;2022-07-21T12:12:06;3.42;;;3.05;;
17696;SDS011;8967;47.984;7.842;2022-07-21T12:17:31;5.30;;;3.13;;
17696;SDS011;8967;47.984;7.842;2022-07-21T12:20:00;3.60;;;2.95;;
17696;SDS011;8967;47.984;7.842;2022-07-21T12:22:33;6.57;;;3.28;;
17696;SDS011;8967;47.984;7.842;2022-07-21T12:25:04;3.17;;;2.70;;
17696;SDS011;8967;47.984;7.842;2022-07-21T12:27:33;3.65;;;3.00;;
17696;SDS011;8967;47.984;7.842;2022-07-21T12:30:05;3.72;;;3.33;;
17696;SDS011;8967;47.984;7.842;2022-07-21T12:32:41;3.70;;;2.90;;
17696;SDS011;8967;47.984;7.842;2022-07-21T12:35:17;4.90;;;3.75;;
17696;SDS011;8967;47.984;7.842;2022-07-21T12:37:57;4.95;;;3.35;;
17696;SDS011;8967;47.984;7.842;2022-07-21T12:40:30;3.25;;;2.80;;
17696;SDS011;8967;47.984;7.842;2022-07-21T12:43:05;4.78;;;3.38;;
17696;SDS011;8967;47.984;7.842;2022-07-21T12:45:48;3.45;;;3.05;;
17696;SDS011;8967;47.984;7.842;2022-07-21T12:48:17;3.75;;;3.13;;
17696;SDS011;8967;47.984;7.842;2022-07-21T12:51:02;3.80;;;2.88;;
17696;SDS011;8967;47.984;7.842;2022-07-21T12:53:39;2.90;;;2.70;;
17696;SDS011;8967;47.984;7.842;2022-07-21T12:56:13;3.65;;;3.20;;
17696;SDS011;8967;47.984;7.842;2022-07-21T12:58:41;3.35;;;2.97;;
17696;SDS011;8967;47.984;7.842;2022-07-21T13:01:08;4.03;;;2.92;;
17696;SDS011;8967;47.984;7.842;2022-07-21T13:03:36;3.92;;;3.40;;
17696;SDS011;8967;47.984;7.842;2022-07-21T13:06:05;3.35;;;3.13;;
17696;SDS011;8967;47.984;7.842;2022-07-21T13:08:36;3.95;;;3.30;;
17696;SDS011;8967;47.984;7.842;2022-07-21T13:11:07;3.40;;;3.10;;
17696;SDS011;8967;47.984;7.842;2022-07-21T13:13:36;5.03;;;3.20;;
17696;SDS011;8967;47.984;7.842;2022-07-21T13:16:04;4.10;;;2.97;;
17696;SDS011;8967;47.984;7.842;2022-07-21T13:18:31;4.25;;;3.72;;
17696;SDS011;8967;47.984;7.842;2022-07-21T13:21:01;4.45;;;3.47;;
17696;SDS011;8967;47.984;7.842;2022-07-21T13:23:30;5.32;;;3.55;;
17696;SDS011;8967;47.984;7.842;2022-07-21T13:25:57;5.25;;;3.03;;
17696;SDS011;8967;47.984;7.842;2022-07-21T13:28:24;5.13;;;3.40;;
17696;SDS011;8967;47.984;7.842;2022-07-21T13:30:53;4.60;;;3.08;;
17696;SDS011;8967;47.984;7.842;2022-07-21T13:33:20;3.35;;;3.05;;
17696;SDS011;8967;47.984;7.842;2022-07-21T13:35:47;3.47;;;3.17;;
17696;SDS011;8967;47.984;7.842;2022-07-21T13:38:14;3.78;;;3.17;;
17696;SDS011;8967;47.984;7.842;2022-07-21T13:40:41;4.78;;;3.15;;
17696;SDS011;8967;47.984;7.842;2022-07-21T13:43:08;4.07;;;3.05;;
17696;SDS011;8967;47.984;7.842;2022-07-21T13:45:37;3.75;;;2.92;;
17696;SDS011;8967;47.984;7.842;2022-07-21T13:48:06;4.13;;;3.00;;
17696;SDS011;8967;47.984;7.842;2022-07-21T13:50:33;4.68;;;2.85;;
17696;SDS011;8967;47.984;7.842;2022-07-21T13:53:00;3.75;;;3.10;;
17696;SDS011;8967;47.984;7.842;2022-07-21T13:55:27;5.10;;;3.33;;
17696;SDS011;8967;47.984;7.842;2022-07-21T13:57:54;4.35;;;3.33;;
17696;SDS011;8967;47.984;7.842;2022-07-21T14:00:23;3.80;;;3.45;;
17696;SDS011;8967;47.984;7.842;2022-07-21T14:02:50;3.80;;;3.45;;
17696;SDS011;8967;47.984;7.842;2022-07-21T14:05:18;4.20;;;3.45;;
17696;SDS011;8967;47.984;7.842;2022-07-21T14:07:47;4.95;;;3.20;;
17696;SDS011;8967;47.984;7.842;2022-07-21T14:10:15;6.93;;;3.47;;
17696;SDS011;8967;47.984;7.842;2022-07-21T14:12:44;5.82;;;3.53;;
17696;SDS011;8967;47.984;7.842;2022-07-21T14:15:11;4.47;;;3.28;;
17696;SDS011;8967;47.984;7.842;2022-07-21T14:17:38;6.25;;;3.30;;
17696;SDS011;8967;47.984;7.842;2022-07-21T14:20:05;5.60;;;3.42;;
17696;SDS011;8967;47.984;7.842;2022-07-21T14:22:35;5.60;;;3.20;;
17696;SDS011;8967;47.984;7.842;2022-07-21T14:25:02;5.70;;;3.45;;
17696;SDS011;8967;47.984;7.842;2022-07-21T14:27:44;3.70;;;3.08;;
17696;SDS011;8967;47.984;7.842;2022-07-21T14:30:11;2.78;;;2.58;;
17696;SDS011;8967;47.984;7.842;2022-07-21T14:32:38;4.10;;;3.08;;
17696;SDS011;8967;47.984;7.842;2022-07-21T14:35:06;3.03;;;2.80;;
17696;SDS011;8967;47.984;7.842;2022-07-21T14:37:37;4.70;;;3.05;;
17696;SDS011;8967;47.984;7.842;2022-07-21T14:40:04;4.57;;;3.25;;
17696;SDS011;8967;47.984;7.842;2022-07-21T14:42:33;6.00;;;3.20;;
17696;SDS011;8967;47.984;7.842;2022-07-21T14:45:00;5.25;;;3.20;;
17696;SDS011;8967;47.984;7.842;2022-07-21T14:47:27;4.85;;;3.30;;
17696;SDS011;8967;47.984;7.842;2022-07-21T14:49:55;6.70;;;3.83;;
17696;SDS011;8967;47.984;7.842;2022-07-21T14:52:22;5.15;;;2.78;;
17696;SDS011;8967;47.984;7.842;2022-07-21T14:54:53;3.42;;;3.13;;
17696;SDS011;8967;47.984;7.842;2022-07-21T14:57:21;4.32;;;3.25;;
17696;SDS011;8967;47.984;7.842;2022-07-21T14:59:48;5.28;;;3.05;;
17696;SDS011;8967;47.984;7.842;2022-07-21T15:02:15;4.65;;;3.38;;
17696;SDS011;8967;47.984;7.842;2022-07-21T15:04:42;6.63;;;3.50;;
17696;SDS011;8967;47.984;7.842;2022-07-21T15:07:09;4.30;;;3.25;;
17696;SDS011;8967;47.984;7.842;2022-07-21T15:09:36;3.45;;;3.15;;
17696;SDS011;8967;47.984;7.842;2022-07-21T15:12:05;4.03;;;3.05;;